createdAt,value
2023-05-22T00:02:12.603Z,8.90
2023-05-22T00:04:40.114Z,8.40
2023-05-22T00:07:07.515Z,8.75
2023-05-22T00:09:34.541Z,8.73
2023-05-22T00:12:01.963Z,8.93
2023-05-22T00:14:28.960Z,9.40
2023-05-22T00:16:56.721Z,9.38
2023-05-22T00:19:23.804Z,8.68
2023-05-22T00:21:51.412Z,9.10
2023-05-22T00:24:18.567Z,8.75
2023-05-22T00:26:45.963Z,9.15
2023-05-22T00:29:13.217Z,8.73
2023-05-22T00:31:40.681Z,8.68
2023-05-22T00:34:07.837Z,9.40
2023-05-22T00:36:35.255Z,8.80
2023-05-22T00:39:02.410Z,9.27
2023-05-22T00:41:30.306Z,9.27
2023-05-22T00:43:57.366Z,9.10
2023-05-22T00:46:24.942Z,10.18
2023-05-22T00:48:55.437Z,10.27
2023-05-22T00:51:24.447Z,8.90
2023-05-22T00:53:53.434Z,8.82
2023-05-22T00:56:21.906Z,9.25
2023-05-22T00:58:49.322Z,8.93
2023-05-22T01:01:17.980Z,8.75
2023-05-22T01:03:46.898Z,9.57
2023-05-22T01:06:16.025Z,8.93
2023-05-22T01:08:44.171Z,8.45
2023-05-22T01:11:28.221Z,9.05
2023-05-22T01:14:12.611Z,8.40
2023-05-22T01:16:52.747Z,10.70
2023-05-22T01:19:47.739Z,8.57
2023-05-22T01:22:32.286Z,8.82
2023-05-22T01:25:17.708Z,9.40
2023-05-22T01:28:04.051Z,8.50
2023-05-22T01:30:48.695Z,8.70
2023-05-22T01:33:18.297Z,9.02
2023-05-22T01:35:51.547Z,8.57
2023-05-22T01:38:19.320Z,7.75
2023-05-22T01:40:47.442Z,8.50
2023-05-22T01:43:16.400Z,8.77
2023-05-22T01:45:43.685Z,8.50
2023-05-22T01:48:12.487Z,8.40
2023-05-22T01:50:40.789Z,8.65
2023-05-22T01:53:15.811Z,8.57
2023-05-22T01:55:46.268Z,8.68
2023-05-22T01:58:18.916Z,8.77
2023-05-22T02:00:48.041Z,8.05
2023-05-22T02:03:19.400Z,8.45
2023-05-22T02:05:54.378Z,8.90
2023-05-22T02:08:22.588Z,7.97
2023-05-22T02:10:51.242Z,8.07
2023-05-22T02:13:22.431Z,7.93
2023-05-22T02:15:51.131Z,8.15
2023-05-22T02:18:18.593Z,8.07
2023-05-22T02:20:48.725Z,9.20
2023-05-22T02:23:16.148Z,8.68
2023-05-22T02:25:43.204Z,8.82
2023-05-22T02:28:10.683Z,8.32
2023-05-22T02:30:37.898Z,8.77
2023-05-22T02:33:06.137Z,8.43
2023-05-22T02:35:33.323Z,9.43
2023-05-22T02:38:00.819Z,8.98
2023-05-22T02:40:28.516Z,8.77
2023-05-22T02:42:55.961Z,7.93
2023-05-22T02:45:23.098Z,8.35
2023-05-22T02:47:51.585Z,8.77
2023-05-22T02:50:18.873Z,9.00
2023-05-22T02:52:46.361Z,8.07
2023-05-22T02:55:13.577Z,8.30
2023-05-22T02:57:41.123Z,8.95
2023-05-22T03:00:11.649Z,8.95
2023-05-22T03:02:39.309Z,8.27
2023-05-22T03:05:07.200Z,8.48
2023-05-22T03:07:34.978Z,7.85
2023-05-22T03:10:02.362Z,7.97
2023-05-22T03:12:29.907Z,7.93
2023-05-22T03:14:59.176Z,10.35
2023-05-22T03:17:26.903Z,8.77
2023-05-22T03:19:54.112Z,8.48
2023-05-22T03:22:21.670Z,9.10
2023-05-22T03:24:48.852Z,8.77
2023-05-22T03:27:17.270Z,9.52
2023-05-22T03:29:46.871Z,8.75
2023-05-22T03:32:14.213Z,7.88
2023-05-22T03:34:42.233Z,8.05
2023-05-22T03:37:11.263Z,8.23
2023-05-22T03:39:39.680Z,9.55
2023-05-22T03:42:39.516Z,8.77
2023-05-22T03:45:07.922Z,8.27
2023-05-22T03:47:35.496Z,9.27
2023-05-22T03:50:03.197Z,9.02
2023-05-22T03:52:30.657Z,8.48
2023-05-22T03:54:57.799Z,8.00
2023-05-22T03:57:25.888Z,7.63
2023-05-22T03:59:53.060Z,8.55
2023-05-22T04:02:21.179Z,8.80
2023-05-22T04:04:48.578Z,8.43
2023-05-22T04:07:18.565Z,8.65
2023-05-22T04:09:45.811Z,8.60
2023-05-22T04:12:13.278Z,8.02
2023-05-22T04:14:40.381Z,8.27
2023-05-22T04:17:08.260Z,8.43
2023-05-22T04:19:35.551Z,9.02
2023-05-22T04:22:02.926Z,8.68
2023-05-22T04:24:30.040Z,9.07
2023-05-22T04:27:00.357Z,10.38
2023-05-22T04:29:28.589Z,10.27
2023-05-22T04:31:55.990Z,9.82
2023-05-22T04:34:24.056Z,12.15
2023-05-22T04:36:51.483Z,12.48
2023-05-22T04:39:18.560Z,12.32
2023-05-22T04:41:46.066Z,13.30
2023-05-22T04:44:14.369Z,14.82
2023-05-22T04:46:42.330Z,15.20
2023-05-22T04:49:09.643Z,17.85
2023-05-22T04:51:37.625Z,17.23
2023-05-22T04:54:05.015Z,19.25
2023-05-22T04:56:36.675Z,20.00
2023-05-22T04:59:05.496Z,21.75
2023-05-22T05:01:35.289Z,21.20
2023-05-22T05:04:03.914Z,19.17
2023-05-22T05:06:31.214Z,15.70
2023-05-22T05:08:58.818Z,16.10
2023-05-22T05:11:26.102Z,15.23
2023-05-22T05:13:53.532Z,15.20
2023-05-22T05:16:20.715Z,17.45
2023-05-22T05:18:48.095Z,17.15
2023-05-22T05:21:15.290Z,18.15
2023-05-22T05:23:43.680Z,16.58
2023-05-22T05:26:13.301Z,15.48
2023-05-22T05:28:41.470Z,16.25
2023-05-22T05:31:10.138Z,16.27
2023-05-22T05:34:06.593Z,16.77
2023-05-22T05:39:22.767Z,16.17
2023-05-22T05:41:50.924Z,11.55
2023-05-22T05:44:19.458Z,10.82
2023-05-22T05:46:47.182Z,10.13
2023-05-22T05:49:19.772Z,10.75
2023-05-22T05:51:47.741Z,11.43
2023-05-22T05:54:16.757Z,11.18
2023-05-22T05:56:45.688Z,11.32
2023-05-22T05:59:13.635Z,11.02
2023-05-22T06:02:06.862Z,11.45
2023-05-22T06:04:35.873Z,12.18
2023-05-22T06:07:04.365Z,11.82
2023-05-22T06:09:45.808Z,12.35
2023-05-22T06:12:16.988Z,11.02
2023-05-22T06:14:45.866Z,12.90
2023-05-22T06:17:14.643Z,12.50
2023-05-22T06:19:43.483Z,13.02
2023-05-22T06:22:10.982Z,12.32
2023-05-22T06:24:40.593Z,11.68
2023-05-22T06:27:13.470Z,10.20
2023-05-22T06:29:40.977Z,10.85
2023-05-22T06:32:08.819Z,10.63
2023-05-22T06:34:38.104Z,8.88
2023-05-22T06:37:06.666Z,9.25
2023-05-22T06:39:40.311Z,8.52
2023-05-22T06:42:12.098Z,8.55
2023-05-22T06:45:14.699Z,7.90
2023-05-22T06:47:55.122Z,7.07
2023-05-22T06:50:23.397Z,7.95
2023-05-22T06:52:51.447Z,7.07
2023-05-22T06:55:19.024Z,6.93
2023-05-22T06:57:58.893Z,6.70
2023-05-22T07:00:28.128Z,7.40
2023-05-22T07:03:08.234Z,6.57
2023-05-22T07:05:52.180Z,7.05
2023-05-22T07:08:20.030Z,6.40
2023-05-22T07:10:47.381Z,6.22
2023-05-22T07:13:14.655Z,10.23
2023-05-22T07:15:42.025Z,6.50
2023-05-22T07:18:10.417Z,5.95
2023-05-22T07:20:40.266Z,5.32
2023-05-22T07:23:15.402Z,6.45
2023-05-22T07:25:43.663Z,5.75
2023-05-22T07:28:14.692Z,7.20
2023-05-22T07:30:58.028Z,5.32
2023-05-22T07:33:25.777Z,5.32
2023-05-22T07:35:55.222Z,5.82
2023-05-22T07:38:22.649Z,4.75
2023-05-22T07:40:57.489Z,5.20
2023-05-22T07:43:25.704Z,4.80
2023-05-22T07:45:54.291Z,4.95
2023-05-22T07:48:25.018Z,4.50
2023-05-22T07:50:52.501Z,4.95
2023-05-22T07:53:19.620Z,4.90
2023-05-22T07:55:51.014Z,4.20
2023-05-22T07:58:19.692Z,4.25
2023-05-22T08:00:48.033Z,4.93
2023-05-22T08:03:15.292Z,4.93
2023-05-22T08:05:42.831Z,4.18
2023-05-22T08:08:12.595Z,3.83
2023-05-22T08:13:10.511Z,4.07
2023-05-22T08:15:37.973Z,4.40
2023-05-22T08:18:05.130Z,7.15
2023-05-22T08:20:33.687Z,5.30
2023-05-22T08:23:00.886Z,6.45
2023-05-22T08:25:28.273Z,7.95
2023-05-22T08:27:55.414Z,7.15
2023-05-22T08:30:22.846Z,7.30
2023-05-22T08:32:50.021Z,5.30
2023-05-22T08:35:17.583Z,6.07
2023-05-22T08:37:44.872Z,6.07
2023-05-22T08:40:13.253Z,5.32
2023-05-22T08:42:40.567Z,4.50
2023-05-22T08:45:08.313Z,5.22
2023-05-22T08:47:37.145Z,6.97
2023-05-22T08:50:04.988Z,6.68
2023-05-22T08:52:46.931Z,8.27
2023-05-22T08:55:14.624Z,7.97
2023-05-22T08:57:43.205Z,6.13
2023-05-22T09:00:11.419Z,5.38
2023-05-22T09:02:39.344Z,4.60
2023-05-22T09:05:07.882Z,3.10
2023-05-22T09:07:35.620Z,9.20
2023-05-22T09:10:05.418Z,4.40
2023-05-22T09:12:32.946Z,5.40
2023-05-22T09:15:10.603Z,5.95
2023-05-22T09:17:41.426Z,5.60
2023-05-22T09:20:13.393Z,5.10
2023-05-22T09:22:40.503Z,4.97
2023-05-22T09:25:08.654Z,4.05
2023-05-22T09:27:35.814Z,4.13
2023-05-22T09:30:03.531Z,4.50
2023-05-22T09:32:31.315Z,3.97
2023-05-22T09:35:05.573Z,3.78
2023-05-22T09:37:37.082Z,3.67
2023-05-22T09:40:09.608Z,3.28
2023-05-22T09:42:37.348Z,6.68
2023-05-22T09:45:06.581Z,4.05
2023-05-22T09:47:34.940Z,2.83
2023-05-22T09:50:07.386Z,3.47
2023-05-22T09:52:36.241Z,4.05
2023-05-22T09:55:08.782Z,3.65
2023-05-22T09:57:48.364Z,3.00
2023-05-22T10:00:19.439Z,4.78
2023-05-22T10:02:48.427Z,3.95
2023-05-22T10:05:21.837Z,3.70
2023-05-22T10:07:51.981Z,2.72
2023-05-22T10:10:22.961Z,3.58
2023-05-22T10:12:56.489Z,3.08
2023-05-22T10:15:27.285Z,3.10
2023-05-22T10:17:54.843Z,2.70
2023-05-22T10:20:22.429Z,2.55
2023-05-22T10:22:49.757Z,4.00
2023-05-22T10:25:24.138Z,4.45
2023-05-22T10:27:55.855Z,3.40
2023-05-22T10:30:34.046Z,3.88
2023-05-22T10:33:36.776Z,2.92
2023-05-22T10:36:41.636Z,3.30
2023-05-22T10:39:11.723Z,3.30
2023-05-22T10:41:40.095Z,3.10
2023-05-22T10:44:07.254Z,3.50
2023-05-22T10:46:34.794Z,3.70
2023-05-22T10:49:02.095Z,4.30
2023-05-22T10:51:29.673Z,5.07
2023-05-22T10:54:05.353Z,3.58
2023-05-22T10:56:35.439Z,3.97
2023-05-22T10:59:10.469Z,4.25
2023-05-22T11:01:38.725Z,3.50
2023-05-22T11:04:18.839Z,4.03
2023-05-22T11:07:10.928Z,3.67
2023-05-22T11:09:48.847Z,4.03
2023-05-22T11:12:20.333Z,4.03
2023-05-22T11:14:50.362Z,3.70
2023-05-22T11:17:23.812Z,4.88
2023-05-22T11:20:08.019Z,3.90
2023-05-22T11:22:44.440Z,3.95
2023-05-22T11:25:19.114Z,3.65
2023-05-22T11:27:48.286Z,3.10
2023-05-22T11:30:17.368Z,3.85
2023-05-22T11:32:46.488Z,3.50
2023-05-22T11:35:21.545Z,3.40
2023-05-22T11:37:50.021Z,4.00
2023-05-22T11:40:19.665Z,3.25
2023-05-22T11:42:47.924Z,3.90
2023-05-22T11:45:15.208Z,3.50
2023-05-22T11:47:43.662Z,3.90
2023-05-22T11:50:12.744Z,2.88
2023-05-22T11:52:42.263Z,3.70
2023-05-22T11:55:12.093Z,3.33
2023-05-22T11:57:39.697Z,3.20
2023-05-22T12:00:08.739Z,3.33
2023-05-22T12:02:44.362Z,3.03
2023-05-22T12:05:12.026Z,4.03
2023-05-22T12:07:39.765Z,5.18
2023-05-22T12:10:08.258Z,3.42
2023-05-22T12:12:36.012Z,5.65
2023-05-22T12:15:06.903Z,8.23
2023-05-22T12:17:38.131Z,4.53
2023-05-22T12:20:06.240Z,3.55
2023-05-22T12:22:33.675Z,3.50
2023-05-22T12:25:00.829Z,3.55
2023-05-22T12:27:33.274Z,3.67
2023-05-22T12:30:10.499Z,3.28
2023-05-22T12:32:40.822Z,3.47
2023-05-22T12:35:16.582Z,3.50
2023-05-22T12:37:51.123Z,3.13
2023-05-22T12:40:18.375Z,3.30
2023-05-22T12:42:46.030Z,3.30
2023-05-22T12:45:13.874Z,3.70
2023-05-22T12:47:41.382Z,3.60
2023-05-22T12:50:09.194Z,3.45
2023-05-22T12:52:36.661Z,3.17
2023-05-22T12:55:04.586Z,3.75
2023-05-22T12:57:32.263Z,3.40
2023-05-22T12:59:59.362Z,3.60
2023-05-22T13:02:27.000Z,4.13
2023-05-22T13:04:54.128Z,3.55
2023-05-22T13:07:22.225Z,3.95
2023-05-22T13:09:49.247Z,4.13
2023-05-22T13:12:16.906Z,3.72
2023-05-22T13:14:44.106Z,4.40
2023-05-22T13:17:11.939Z,3.55
2023-05-22T13:19:39.411Z,3.40
2023-05-22T13:22:07.759Z,4.07
2023-05-22T13:24:34.924Z,3.22
2023-05-22T13:27:02.899Z,4.15
2023-05-22T13:29:30.122Z,3.50
2023-05-22T13:31:57.434Z,2.83
2023-05-22T13:34:24.785Z,3.83
2023-05-22T13:36:52.465Z,3.50
2023-05-22T13:39:19.609Z,3.08
2023-05-22T13:41:47.212Z,4.13
2023-05-22T13:44:14.386Z,2.70
2023-05-22T13:46:41.778Z,3.13
2023-05-22T13:49:08.901Z,3.03
2023-05-22T13:51:36.427Z,2.88
2023-05-22T13:54:03.882Z,2.70
2023-05-22T13:56:31.590Z,2.85
2023-05-22T13:58:58.720Z,3.25
2023-05-22T14:01:26.391Z,3.10
2023-05-22T14:03:53.605Z,3.40
2023-05-22T14:06:21.026Z,3.50
2023-05-22T14:08:50.845Z,3.22
2023-05-22T14:11:18.283Z,2.90
2023-05-22T14:13:45.354Z,3.00
2023-05-22T14:16:12.751Z,3.50
2023-05-22T14:18:39.851Z,3.33
2023-05-22T14:21:07.185Z,3.45
2023-05-22T14:23:34.345Z,3.17
2023-05-22T14:26:01.739Z,3.40
2023-05-22T14:28:31.763Z,3.08
2023-05-22T14:30:59.170Z,3.17
2023-05-22T14:33:26.306Z,3.20
2023-05-22T14:35:53.847Z,2.90
2023-05-22T14:38:21.082Z,3.22
2023-05-22T14:40:48.474Z,3.35
2023-05-22T14:43:15.800Z,2.90
2023-05-22T14:45:43.920Z,3.38
2023-05-22T14:48:11.583Z,3.22
2023-05-22T14:50:38.918Z,3.47
2023-05-22T14:53:05.958Z,3.00
2023-05-22T14:55:33.621Z,3.83
2023-05-22T14:58:00.735Z,3.10
2023-05-22T15:00:28.734Z,3.47
2023-05-22T15:02:55.942Z,3.25
2023-05-22T15:05:23.592Z,3.50
2023-05-22T15:07:51.712Z,3.33
2023-05-22T15:10:18.975Z,4.47
2023-05-22T15:12:46.420Z,3.88
2023-05-22T15:15:13.535Z,3.40
2023-05-22T15:17:42.890Z,3.65
2023-05-22T15:20:11.151Z,3.42
2023-05-22T15:22:39.302Z,3.78
2023-05-22T15:25:09.137Z,4.32
2023-05-22T15:27:38.998Z,4.00
2023-05-22T15:30:07.017Z,4.25
2023-05-22T15:32:34.587Z,4.00
2023-05-22T15:35:01.762Z,4.03
2023-05-22T15:37:39.417Z,3.67
2023-05-22T15:40:09.639Z,4.07
2023-05-22T15:42:38.181Z,3.92
2023-05-22T15:45:05.896Z,3.67
2023-05-22T15:47:33.850Z,3.67
2023-05-22T15:50:01.053Z,4.10
2023-05-22T15:52:28.515Z,5.05
2023-05-22T15:54:57.125Z,6.60
2023-05-22T15:57:26.651Z,4.15
2023-05-22T15:59:53.702Z,4.80
2023-05-22T16:02:21.112Z,3.60
2023-05-22T16:04:49.317Z,3.78
2023-05-22T16:07:18.904Z,3.75
2023-05-22T16:09:46.060Z,4.05
2023-05-22T16:12:13.393Z,3.35
2023-05-22T16:14:42.997Z,3.55
2023-05-22T16:17:10.640Z,11.35
2023-05-22T16:19:37.802Z,5.85
2023-05-22T16:22:05.499Z,4.00
2023-05-22T16:24:32.553Z,4.88
2023-05-22T16:27:00.703Z,4.05
2023-05-22T16:29:27.854Z,5.43
2023-05-22T16:31:56.752Z,3.97
2023-05-22T16:34:24.133Z,4.95
2023-05-22T16:36:51.501Z,3.80
2023-05-22T16:39:18.546Z,3.92
2023-05-22T16:41:46.103Z,4.43
2023-05-22T16:44:13.377Z,4.45
2023-05-22T16:46:40.822Z,4.18
2023-05-22T16:49:07.973Z,4.22
2023-05-22T16:51:35.332Z,3.55
2023-05-22T16:54:02.510Z,4.03
2023-05-22T16:56:32.763Z,3.80
2023-05-22T16:59:00.765Z,3.55
2023-05-22T17:01:28.474Z,3.45
2023-05-22T17:03:55.983Z,4.93
2023-05-22T17:06:23.435Z,3.75
2023-05-22T17:08:50.768Z,3.90
2023-05-22T17:11:18.270Z,4.40
2023-05-22T17:13:45.398Z,4.07
2023-05-22T17:16:12.805Z,5.80
2023-05-22T17:18:40.510Z,6.13
2023-05-22T17:21:09.270Z,4.45
2023-05-22T17:23:37.356Z,3.90
2023-05-22T17:26:05.363Z,4.68
2023-05-22T17:28:32.463Z,4.20
2023-05-22T17:30:59.896Z,4.38
2023-05-22T17:33:27.097Z,4.68
2023-05-22T17:35:54.558Z,3.38
2023-05-22T17:38:21.963Z,4.75
2023-05-22T17:40:49.755Z,5.30
2023-05-22T17:45:49.995Z,5.65
2023-05-22T17:48:23.358Z,5.40
2023-05-22T17:50:52.043Z,6.53
2023-05-22T17:53:22.667Z,4.75
2023-05-22T17:55:52.436Z,6.22
2023-05-22T17:58:21.090Z,5.50
2023-05-22T18:00:49.136Z,4.68
2023-05-22T18:03:20.479Z,4.60
2023-05-22T18:05:51.979Z,4.53
2023-05-22T18:08:21.198Z,5.82
2023-05-22T18:10:49.460Z,4.97
2023-05-22T18:13:17.208Z,4.90
2023-05-22T18:15:44.721Z,4.95
2023-05-22T18:18:13.149Z,5.10
2023-05-22T18:20:40.834Z,5.05
2023-05-22T18:23:08.104Z,5.07
2023-05-22T18:25:35.537Z,5.00
2023-05-22T18:28:02.695Z,5.00
2023-05-22T18:30:30.535Z,5.55
2023-05-22T18:32:58.174Z,5.15
2023-05-22T18:35:25.587Z,5.38
2023-05-22T18:37:52.669Z,5.32
2023-05-22T18:40:20.118Z,4.20
2023-05-22T18:42:47.366Z,5.10
2023-05-22T18:45:14.731Z,4.40
2023-05-22T18:47:41.861Z,4.80
2023-05-22T18:50:09.777Z,4.60
2023-05-22T18:52:37.975Z,5.07
2023-05-22T18:55:05.994Z,6.65
2023-05-22T18:57:33.123Z,5.50
2023-05-22T19:00:00.668Z,8.07
2023-05-22T19:02:27.808Z,5.00
2023-05-22T19:04:55.448Z,5.30
2023-05-22T19:07:24.912Z,5.65
2023-05-22T19:09:52.298Z,5.88
2023-05-22T19:12:19.445Z,5.47
2023-05-22T19:14:48.390Z,5.20
2023-05-22T19:17:16.121Z,5.45
2023-05-22T19:19:43.616Z,6.00
2023-05-22T19:22:10.819Z,6.53
2023-05-22T19:24:38.281Z,7.00
2023-05-22T19:27:05.643Z,7.32
2023-05-22T19:29:33.091Z,6.80
2023-05-22T19:32:00.190Z,7.35
2023-05-22T19:34:27.594Z,7.68
2023-05-22T19:36:57.704Z,7.30
2023-05-22T19:39:25.918Z,6.85
2023-05-22T19:41:54.422Z,7.22
2023-05-22T19:44:21.897Z,7.40
2023-05-22T19:46:49.029Z,7.72
2023-05-22T19:49:16.243Z,7.10
2023-05-22T19:51:43.725Z,7.20
2023-05-22T19:54:10.830Z,6.93
2023-05-22T19:56:38.323Z,6.90
2023-05-22T19:59:05.530Z,6.03
2023-05-22T20:01:33.304Z,6.28
2023-05-22T20:04:01.137Z,6.28
2023-05-22T20:06:31.543Z,5.88
2023-05-22T20:08:58.717Z,5.53
2023-05-22T20:11:28.578Z,6.22
2023-05-22T20:13:55.682Z,5.85
2023-05-22T20:16:23.054Z,5.60
2023-05-22T20:18:51.057Z,6.78
2023-05-22T20:21:18.470Z,6.63
2023-05-22T20:23:46.243Z,5.97
2023-05-22T20:26:13.717Z,6.25
2023-05-22T20:28:40.838Z,5.03
2023-05-22T20:31:08.204Z,5.45
2023-05-22T20:33:35.602Z,6.63
2023-05-22T20:36:04.115Z,6.75
2023-05-22T20:38:34.524Z,7.25
2023-05-22T20:41:02.635Z,5.68
2023-05-22T20:43:32.488Z,6.05
2023-05-22T20:45:59.846Z,5.88
2023-05-22T20:48:27.057Z,6.75
2023-05-22T20:50:54.503Z,6.60
2023-05-22T20:53:21.645Z,6.68
2023-05-22T20:55:49.060Z,6.68
2023-05-22T20:58:16.577Z,6.00
2023-05-22T21:00:44.030Z,5.93
2023-05-22T21:03:11.873Z,6.50
2023-05-22T21:05:39.695Z,5.70
2023-05-22T21:08:07.087Z,6.60
2023-05-22T21:10:34.748Z,6.40
2023-05-22T21:13:01.849Z,7.50
2023-05-22T21:15:29.292Z,6.57
2023-05-22T21:17:56.459Z,7.05
2023-05-22T21:20:23.922Z,7.00
2023-05-22T21:22:51.081Z,7.63
2023-05-22T21:25:18.461Z,6.53
2023-05-22T21:27:48.234Z,7.00
2023-05-22T21:30:16.222Z,6.82
2023-05-22T21:32:43.344Z,7.15
2023-05-22T21:35:11.004Z,7.30
2023-05-22T21:37:38.220Z,7.25
2023-05-22T21:40:06.416Z,6.93
2023-05-22T21:42:44.998Z,7.82
2023-05-22T21:45:13.504Z,7.53
2023-05-22T21:47:40.650Z,7.18
2023-05-22T21:50:08.405Z,6.72
2023-05-22T21:52:35.661Z,6.68
2023-05-22T21:55:03.010Z,7.10
2023-05-22T21:57:30.351Z,7.45
2023-05-22T21:59:57.744Z,7.57
2023-05-22T22:02:24.878Z,7.38
2023-05-22T22:04:52.322Z,7.45
2023-05-22T22:07:19.519Z,6.50
2023-05-22T22:09:46.858Z,7.38
2023-05-22T22:12:13.934Z,7.03
2023-05-22T22:14:41.282Z,7.25
2023-05-22T22:17:09.092Z,6.93
2023-05-22T22:19:36.650Z,7.22
2023-05-22T22:22:03.948Z,6.85
2023-05-22T22:24:31.344Z,6.47
2023-05-22T22:26:58.454Z,7.63
2023-05-22T22:29:26.161Z,6.60
2023-05-22T22:31:53.382Z,7.18
2023-05-22T22:34:20.885Z,7.70
2023-05-22T22:36:47.978Z,6.97
2023-05-22T22:39:15.688Z,7.07
2023-05-22T22:41:43.627Z,7.45
2023-05-22T22:44:11.159Z,7.07
2023-05-22T22:46:38.319Z,6.57
2023-05-22T22:49:05.720Z,6.40
2023-05-22T22:51:32.792Z,7.22
2023-05-22T22:54:00.286Z,7.60
2023-05-22T22:56:30.275Z,7.10
2023-05-22T22:58:57.705Z,9.07
2023-05-22T23:01:24.988Z,7.38
2023-05-22T23:03:52.553Z,7.18
2023-05-22T23:06:19.872Z,6.13
2023-05-22T23:08:47.252Z,6.50
2023-05-22T23:11:14.312Z,7.40
2023-05-22T23:13:43.431Z,7.18
2023-05-22T23:16:10.892Z,6.72
2023-05-22T23:18:38.299Z,7.03
2023-05-22T23:21:05.598Z,6.60
2023-05-22T23:23:33.150Z,7.10
2023-05-22T23:26:00.256Z,7.35
2023-05-22T23:28:27.888Z,7.28
2023-05-22T23:30:54.930Z,7.32
2023-05-22T23:33:22.392Z,7.38
2023-05-22T23:35:49.465Z,7.25
2023-05-22T23:38:16.849Z,7.55
2023-05-22T23:40:44.008Z,6.95
2023-05-22T23:43:11.315Z,7.10
2023-05-22T23:45:38.632Z,7.45
2023-05-22T23:48:06.666Z,7.03
2023-05-22T23:50:33.795Z,8.35
2023-05-22T23:53:01.196Z,8.07
2023-05-22T23:55:28.226Z,7.68
2023-05-22T23:57:55.637Z,8.15
